sensor_id;sensor_type;location;lat;lon;timestamp;P1;durP1;ratioP1;P2;durP2;ratioP2
4553;SDS011;2289;48.316;15.174;2023-02-15T00:00:30;17.70;;;9.27;;
4553;SDS011;2289;48.316;15.174;2023-02-15T00:03:02;18.97;;;10.20;;
4553;SDS011;2289;48.316;15.174;2023-02-15T00:05:39;15.07;;;10.07;;
4553;SDS011;2289;48.316;15.174;2023-02-15T00:08:07;14.83;;;10.17;;
4553;SDS011;2289;48.316;15.174;2023-02-15T00:10:36;19.77;;;10.50;;
4553;SDS011;2289;48.316;15.174;2023-02-15T00:13:05;17.53;;;10.50;;
4553;SDS011;2289;48.316;15.174;2023-02-15T00:15:33;18.13;;;10.10;;
4553;SDS011;2289;48.316;15.174;2023-02-15T00:18:07;18.10;;;10.20;;
4553;SDS011;2289;48.316;15.174;2023-02-15T00:20:45;15.53;;;8.40;;
4553;SDS011;2289;48.316;15.174;2023-02-15T00:23:14;17.53;;;9.43;;
4553;SDS011;2289;48.316;15.174;2023-02-15T00:25:42;19.67;;;10.00;;
4553;SDS011;2289;48.316;15.174;2023-02-15T00:28:10;18.37;;;11.07;;
4553;SDS011;2289;48.316;15.174;2023-02-15T00:30:39;13.47;;;9.37;;
4553;SDS011;2289;48.316;15.174;2023-02-15T00:33:09;18.00;;;10.63;;
4553;SDS011;2289;48.316;15.174;2023-02-15T00:35:38;16.07;;;9.90;;
4553;SDS011;2289;48.316;15.174;2023-02-15T00:38:06;22.47;;;12.30;;
4553;SDS011;2289;48.316;15.174;2023-02-15T00:40:35;20.40;;;11.73;;
4553;SDS011;2289;48.316;15.174;2023-02-15T00:43:04;19.67;;;10.30;;
4553;SDS011;2289;48.316;15.174;2023-02-15T00:45:32;12.37;;;7.70;;
4553;SDS011;2289;48.316;15.174;2023-02-15T00:48:01;17.27;;;10.47;;
4553;SDS011;2289;48.316;15.174;2023-02-15T00:50:31;16.73;;;9.90;;
4553;SDS011;2289;48.316;15.174;2023-02-15T00:53:00;18.93;;;10.57;;
4553;SDS011;2289;48.316;15.174;2023-02-15T00:55:29;17.07;;;10.43;;
4553;SDS011;2289;48.316;15.174;2023-02-15T00:57:57;15.43;;;9.17;;
4553;SDS011;2289;48.316;15.174;2023-02-15T01:00:26;21.67;;;9.43;;
4553;SDS011;2289;48.316;15.174;2023-02-15T01:02:55;16.20;;;9.00;;
4553;SDS011;2289;48.316;15.174;2023-02-15T01:05:24;15.17;;;8.30;;
4553;SDS011;2289;48.316;15.174;2023-02-15T01:07:54;13.40;;;9.07;;
4553;SDS011;2289;48.316;15.174;2023-02-15T01:10:22;16.77;;;8.40;;
4553;SDS011;2289;48.316;15.174;2023-02-15T01:12:51;14.40;;;8.73;;
4553;SDS011;2289;48.316;15.174;2023-02-15T01:15:20;14.87;;;8.70;;
4553;SDS011;2289;48.316;15.174;2023-02-15T01:17:51;12.20;;;7.67;;
4553;SDS011;2289;48.316;15.174;2023-02-15T01:20:21;13.57;;;8.50;;
4553;SDS011;2289;48.316;15.174;2023-02-15T01:22:53;14.80;;;9.10;;
4553;SDS011;2289;48.316;15.174;2023-02-15T01:25:23;11.77;;;8.10;;
4553;SDS011;2289;48.316;15.174;2023-02-15T01:27:52;11.77;;;6.43;;
4553;SDS011;2289;48.316;15.174;2023-02-15T01:30:21;12.33;;;7.63;;
4553;SDS011;2289;48.316;15.174;2023-02-15T01:32:50;13.13;;;7.80;;
4553;SDS011;2289;48.316;15.174;2023-02-15T01:35:18;8.80;;;6.00;;
4553;SDS011;2289;48.316;15.174;2023-02-15T01:37:47;11.73;;;6.70;;
4553;SDS011;2289;48.316;15.174;2023-02-15T01:40:17;13.20;;;7.10;;
4553;SDS011;2289;48.316;15.174;2023-02-15T01:42:50;12.73;;;7.07;;
4553;SDS011;2289;48.316;15.174;2023-02-15T01:45:20;11.17;;;7.63;;
4553;SDS011;2289;48.316;15.174;2023-02-15T01:47:52;8.20;;;5.70;;
4553;SDS011;2289;48.316;15.174;2023-02-15T01:50:25;14.23;;;6.83;;
4553;SDS011;2289;48.316;15.174;2023-02-15T01:52:57;11.10;;;6.57;;
4553;SDS011;2289;48.316;15.174;2023-02-15T01:55:30;15.53;;;8.57;;
4553;SDS011;2289;48.316;15.174;2023-02-15T01:58:00;11.27;;;7.80;;
4553;SDS011;2289;48.316;15.174;2023-02-15T02:00:30;11.93;;;6.47;;
4553;SDS011;2289;48.316;15.174;2023-02-15T02:03:01;10.90;;;7.23;;
4553;SDS011;2289;48.316;15.174;2023-02-15T02:05:30;8.43;;;6.20;;
4553;SDS011;2289;48.316;15.174;2023-02-15T02:08:00;8.13;;;5.70;;
4553;SDS011;2289;48.316;15.174;2023-02-15T02:10:31;10.90;;;6.43;;
4553;SDS011;2289;48.316;15.174;2023-02-15T02:13:00;8.47;;;6.40;;
4553;SDS011;2289;48.316;15.174;2023-02-15T02:15:33;9.40;;;7.70;;
4553;SDS011;2289;48.316;15.174;2023-02-15T02:18:13;10.50;;;5.33;;
4553;SDS011;2289;48.316;15.174;2023-02-15T02:20:58;10.80;;;6.00;;
4553;SDS011;2289;48.316;15.174;2023-02-15T02:23:44;10.10;;;6.60;;
4553;SDS011;2289;48.316;15.174;2023-02-15T02:35:29;10.83;;;6.33;;
4553;SDS011;2289;48.316;15.174;2023-02-15T02:38:01;8.77;;;6.30;;
4553;SDS011;2289;48.316;15.174;2023-02-15T02:40:38;10.30;;;5.70;;
4553;SDS011;2289;48.316;15.174;2023-02-15T02:43:15;9.67;;;5.37;;
4553;SDS011;2289;48.316;15.174;2023-02-15T02:45:47;6.47;;;5.33;;
4553;SDS011;2289;48.316;15.174;2023-02-15T02:48:21;10.30;;;6.20;;
4553;SDS011;2289;48.316;15.174;2023-02-15T02:50:51;9.57;;;5.63;;
4553;SDS011;2289;48.316;15.174;2023-02-15T02:53:19;10.33;;;5.80;;
4553;SDS011;2289;48.316;15.174;2023-02-15T02:55:49;8.03;;;4.93;;
4553;SDS011;2289;48.316;15.174;2023-02-15T02:58:20;7.90;;;5.60;;
4553;SDS011;2289;48.316;15.174;2023-02-15T03:00:52;8.27;;;5.30;;
4553;SDS011;2289;48.316;15.174;2023-02-15T03:03:25;7.57;;;4.67;;
4553;SDS011;2289;48.316;15.174;2023-02-15T03:05:57;6.57;;;4.80;;
4553;SDS011;2289;48.316;15.174;2023-02-15T03:08:29;6.53;;;5.07;;
4553;SDS011;2289;48.316;15.174;2023-02-15T03:11:00;9.43;;;4.83;;
4553;SDS011;2289;48.316;15.174;2023-02-15T03:13:30;5.67;;;4.10;;
4553;SDS011;2289;48.316;15.174;2023-02-15T03:16:00;6.77;;;4.40;;
4553;SDS011;2289;48.316;15.174;2023-02-15T03:18:49;5.23;;;2.97;;
4553;SDS011;2289;48.316;15.174;2023-02-15T03:21:27;5.00;;;3.33;;
4553;SDS011;2289;48.316;15.174;2023-02-15T03:24:00;9.20;;;4.10;;
4553;SDS011;2289;48.316;15.174;2023-02-15T03:26:32;5.47;;;3.30;;
4553;SDS011;2289;48.316;15.174;2023-02-15T03:29:03;6.27;;;3.30;;
4553;SDS011;2289;48.316;15.174;2023-02-15T03:31:34;4.10;;;3.33;;
4553;SDS011;2289;48.316;15.174;2023-02-15T03:34:07;7.00;;;4.13;;
4553;SDS011;2289;48.316;15.174;2023-02-15T03:36:44;4.67;;;3.20;;
4553;SDS011;2289;48.316;15.174;2023-02-15T03:39:17;6.63;;;3.77;;
4553;SDS011;2289;48.316;15.174;2023-02-15T03:41:51;4.90;;;3.27;;
4553;SDS011;2289;48.316;15.174;2023-02-15T03:44:25;5.47;;;4.63;;
4553;SDS011;2289;48.316;15.174;2023-02-15T03:46:58;5.77;;;3.97;;
4553;SDS011;2289;48.316;15.174;2023-02-15T03:49:35;3.93;;;3.50;;
4553;SDS011;2289;48.316;15.174;2023-02-15T03:52:09;4.10;;;3.07;;
4553;SDS011;2289;48.316;15.174;2023-02-15T03:54:38;4.73;;;3.63;;
4553;SDS011;2289;48.316;15.174;2023-02-15T03:57:17;5.10;;;3.90;;
4553;SDS011;2289;48.316;15.174;2023-02-15T04:00:05;5.63;;;2.67;;
4553;SDS011;2289;48.316;15.174;2023-02-15T04:03:06;8.30;;;4.30;;
4553;SDS011;2289;48.316;15.174;2023-02-15T04:05:44;3.30;;;3.00;;
4553;SDS011;2289;48.316;15.174;2023-02-15T04:08:15;3.70;;;2.63;;
4553;SDS011;2289;48.316;15.174;2023-02-15T04:10:44;7.47;;;2.80;;
4553;SDS011;2289;48.316;15.174;2023-02-15T04:13:23;2.80;;;1.97;;
4553;SDS011;2289;48.316;15.174;2023-02-15T04:15:57;3.20;;;2.93;;
4553;SDS011;2289;48.316;15.174;2023-02-15T04:18:33;6.63;;;2.97;;
4553;SDS011;2289;48.316;15.174;2023-02-15T04:24:33;8.03;;;2.63;;
4553;SDS011;2289;48.316;15.174;2023-02-15T04:27:19;2.00;;;1.80;;
4553;SDS011;2289;48.316;15.174;2023-02-15T04:29:48;3.30;;;1.97;;
4553;SDS011;2289;48.316;15.174;2023-02-15T04:32:17;2.50;;;2.30;;
4553;SDS011;2289;48.316;15.174;2023-02-15T04:34:45;4.40;;;2.50;;
4553;SDS011;2289;48.316;15.174;2023-02-15T04:37:30;2.50;;;1.80;;
4553;SDS011;2289;48.316;15.174;2023-02-15T04:39:59;6.00;;;2.53;;
4553;SDS011;2289;48.316;15.174;2023-02-15T04:42:29;3.97;;;2.33;;
4553;SDS011;2289;48.316;15.174;2023-02-15T04:44:58;5.63;;;1.80;;
4553;SDS011;2289;48.316;15.174;2023-02-15T04:47:27;6.90;;;2.10;;
4553;SDS011;2289;48.316;15.174;2023-02-15T04:49:55;2.70;;;2.40;;
4553;SDS011;2289;48.316;15.174;2023-02-15T04:52:24;3.23;;;1.70;;
4553;SDS011;2289;48.316;15.174;2023-02-15T04:54:54;3.50;;;1.83;;
4553;SDS011;2289;48.316;15.174;2023-02-15T04:57:23;2.40;;;1.30;;
4553;SDS011;2289;48.316;15.174;2023-02-15T04:59:52;2.20;;;1.80;;
4553;SDS011;2289;48.316;15.174;2023-02-15T05:02:21;3.27;;;1.63;;
4553;SDS011;2289;48.316;15.174;2023-02-15T05:04:50;2.50;;;1.67;;
4553;SDS011;2289;48.316;15.174;2023-02-15T05:07:18;1.43;;;1.33;;
4553;SDS011;2289;48.316;15.174;2023-02-15T05:09:48;3.07;;;2.50;;
4553;SDS011;2289;48.316;15.174;2023-02-15T05:12:18;2.43;;;1.70;;
4553;SDS011;2289;48.316;15.174;2023-02-15T05:14:46;1.77;;;1.50;;
4553;SDS011;2289;48.316;15.174;2023-02-15T05:17:15;1.60;;;1.30;;
4553;SDS011;2289;48.316;15.174;2023-02-15T05:19:43;2.53;;;2.33;;
4553;SDS011;2289;48.316;15.174;2023-02-15T05:22:12;3.27;;;2.23;;
4553;SDS011;2289;48.316;15.174;2023-02-15T05:24:41;7.80;;;1.83;;
4553;SDS011;2289;48.316;15.174;2023-02-15T05:27:31;4.43;;;1.83;;
4553;SDS011;2289;48.316;15.174;2023-02-15T05:30:17;2.63;;;1.60;;
4553;SDS011;2289;48.316;15.174;2023-02-15T05:32:46;4.97;;;1.73;;
4553;SDS011;2289;48.316;15.174;2023-02-15T05:35:18;4.33;;;1.87;;
4553;SDS011;2289;48.316;15.174;2023-02-15T05:37:47;3.90;;;2.03;;
4553;SDS011;2289;48.316;15.174;2023-02-15T05:40:16;3.13;;;2.00;;
4553;SDS011;2289;48.316;15.174;2023-02-15T05:42:46;4.37;;;2.47;;
4553;SDS011;2289;48.316;15.174;2023-02-15T05:45:15;7.73;;;4.47;;
4553;SDS011;2289;48.316;15.174;2023-02-15T05:47:44;3.90;;;3.27;;
4553;SDS011;2289;48.316;15.174;2023-02-15T05:50:13;7.53;;;4.17;;
4553;SDS011;2289;48.316;15.174;2023-02-15T05:52:42;8.73;;;2.87;;
4553;SDS011;2289;48.316;15.174;2023-02-15T05:55:11;3.50;;;2.20;;
4553;SDS011;2289;48.316;15.174;2023-02-15T05:57:41;3.53;;;2.70;;
4553;SDS011;2289;48.316;15.174;2023-02-15T06:00:13;6.37;;;2.30;;
4553;SDS011;2289;48.316;15.174;2023-02-15T06:02:42;2.63;;;2.10;;
4553;SDS011;2289;48.316;15.174;2023-02-15T06:05:11;4.30;;;1.77;;
4553;SDS011;2289;48.316;15.174;2023-02-15T06:07:42;2.20;;;1.77;;
4553;SDS011;2289;48.316;15.174;2023-02-15T06:10:11;4.00;;;2.60;;
4553;SDS011;2289;48.316;15.174;2023-02-15T06:12:40;6.63;;;2.37;;
4553;SDS011;2289;48.316;15.174;2023-02-15T06:15:09;7.00;;;3.87;;
4553;SDS011;2289;48.316;15.174;2023-02-15T06:17:39;6.20;;;3.13;;
4553;SDS011;2289;48.316;15.174;2023-02-15T06:20:09;6.40;;;3.33;;
4553;SDS011;2289;48.316;15.174;2023-02-15T06:22:39;5.37;;;3.20;;
4553;SDS011;2289;48.316;15.174;2023-02-15T06:25:09;4.73;;;2.57;;
4553;SDS011;2289;48.316;15.174;2023-02-15T06:27:40;4.17;;;3.00;;
4553;SDS011;2289;48.316;15.174;2023-02-15T06:30:09;6.07;;;3.77;;
4553;SDS011;2289;48.316;15.174;2023-02-15T06:32:44;6.70;;;3.10;;
4553;SDS011;2289;48.316;15.174;2023-02-15T06:35:13;8.07;;;3.60;;
4553;SDS011;2289;48.316;15.174;2023-02-15T06:37:42;4.10;;;3.60;;
4553;SDS011;2289;48.316;15.174;2023-02-15T06:40:17;6.83;;;3.50;;
4553;SDS011;2289;48.316;15.174;2023-02-15T06:42:49;7.77;;;4.77;;
4553;SDS011;2289;48.316;15.174;2023-02-15T06:45:17;7.70;;;3.93;;
4553;SDS011;2289;48.316;15.174;2023-02-15T06:47:48;7.43;;;5.27;;
4553;SDS011;2289;48.316;15.174;2023-02-15T06:50:16;8.13;;;4.43;;
4553;SDS011;2289;48.316;15.174;2023-02-15T06:52:52;14.97;;;7.93;;
4553;SDS011;2289;48.316;15.174;2023-02-15T06:55:24;11.93;;;6.33;;
4553;SDS011;2289;48.316;15.174;2023-02-15T06:57:52;9.90;;;5.50;;
4553;SDS011;2289;48.316;15.174;2023-02-15T07:00:21;12.40;;;7.27;;
4553;SDS011;2289;48.316;15.174;2023-02-15T07:02:54;17.00;;;8.40;;
4553;SDS011;2289;48.316;15.174;2023-02-15T07:05:24;12.50;;;6.00;;
4553;SDS011;2289;48.316;15.174;2023-02-15T07:07:57;10.07;;;5.80;;
4553;SDS011;2289;48.316;15.174;2023-02-15T07:10:29;14.13;;;7.00;;
4553;SDS011;2289;48.316;15.174;2023-02-15T07:12:57;11.83;;;6.60;;
4553;SDS011;2289;48.316;15.174;2023-02-15T07:15:25;10.77;;;6.63;;
4553;SDS011;2289;48.316;15.174;2023-02-15T07:17:56;8.13;;;4.70;;
4553;SDS011;2289;48.316;15.174;2023-02-15T07:20:26;5.97;;;4.33;;
4553;SDS011;2289;48.316;15.174;2023-02-15T07:22:58;9.80;;;5.60;;
4553;SDS011;2289;48.316;15.174;2023-02-15T07:25:27;8.43;;;4.73;;
4553;SDS011;2289;48.316;15.174;2023-02-15T07:27:56;15.23;;;7.50;;
4553;SDS011;2289;48.316;15.174;2023-02-15T07:30:27;10.37;;;5.53;;
4553;SDS011;2289;48.316;15.174;2023-02-15T07:33:00;14.10;;;6.80;;
4553;SDS011;2289;48.316;15.174;2023-02-15T07:35:48;8.37;;;5.67;;
4553;SDS011;2289;48.316;15.174;2023-02-15T07:38:17;7.57;;;5.63;;
4553;SDS011;2289;48.316;15.174;2023-02-15T07:40:46;9.17;;;4.97;;
4553;SDS011;2289;48.316;15.174;2023-02-15T07:43:15;12.80;;;5.03;;
4553;SDS011;2289;48.316;15.174;2023-02-15T07:45:44;9.60;;;5.20;;
4553;SDS011;2289;48.316;15.174;2023-02-15T07:48:14;12.73;;;8.30;;
4553;SDS011;2289;48.316;15.174;2023-02-15T07:50:43;13.43;;;7.70;;
4553;SDS011;2289;48.316;15.174;2023-02-15T07:53:12;10.20;;;7.73;;
4553;SDS011;2289;48.316;15.174;2023-02-15T07:55:40;18.20;;;9.20;;
4553;SDS011;2289;48.316;15.174;2023-02-15T07:58:09;18.10;;;9.13;;
4553;SDS011;2289;48.316;15.174;2023-02-15T08:00:41;15.20;;;9.07;;
4553;SDS011;2289;48.316;15.174;2023-02-15T08:03:28;16.47;;;9.27;;
4553;SDS011;2289;48.316;15.174;2023-02-15T08:05:57;17.20;;;9.53;;
4553;SDS011;2289;48.316;15.174;2023-02-15T08:08:28;14.50;;;8.57;;
4553;SDS011;2289;48.316;15.174;2023-02-15T08:11:00;22.33;;;11.50;;
4553;SDS011;2289;48.316;15.174;2023-02-15T08:13:48;18.97;;;9.03;;
4553;SDS011;2289;48.316;15.174;2023-02-15T08:16:29;16.70;;;8.50;;
4553;SDS011;2289;48.316;15.174;2023-02-15T08:19:01;24.17;;;10.57;;
4553;SDS011;2289;48.316;15.174;2023-02-15T08:21:32;17.63;;;9.90;;
4553;SDS011;2289;48.316;15.174;2023-02-15T08:24:03;22.00;;;9.83;;
4553;SDS011;2289;48.316;15.174;2023-02-15T08:26:35;22.27;;;11.80;;
4553;SDS011;2289;48.316;15.174;2023-02-15T08:29:09;19.33;;;10.70;;
4553;SDS011;2289;48.316;15.174;2023-02-15T08:31:38;14.97;;;8.60;;
4553;SDS011;2289;48.316;15.174;2023-02-15T08:34:13;20.27;;;10.67;;
4553;SDS011;2289;48.316;15.174;2023-02-15T08:36:43;16.03;;;9.50;;
4553;SDS011;2289;48.316;15.174;2023-02-15T08:39:12;14.47;;;9.37;;
4553;SDS011;2289;48.316;15.174;2023-02-15T08:41:42;16.47;;;9.27;;
4553;SDS011;2289;48.316;15.174;2023-02-15T08:44:12;16.30;;;9.67;;
4553;SDS011;2289;48.316;15.174;2023-02-15T08:46:43;17.00;;;8.23;;
4553;SDS011;2289;48.316;15.174;2023-02-15T08:49:15;12.30;;;8.23;;
4553;SDS011;2289;48.316;15.174;2023-02-15T08:51:46;14.87;;;7.97;;
4553;SDS011;2289;48.316;15.174;2023-02-15T08:54:17;17.17;;;8.87;;
4553;SDS011;2289;48.316;15.174;2023-02-15T08:56:47;13.30;;;8.57;;
4553;SDS011;2289;48.316;15.174;2023-02-15T08:59:16;13.20;;;7.80;;
4553;SDS011;2289;48.316;15.174;2023-02-15T09:01:49;15.53;;;8.67;;
4553;SDS011;2289;48.316;15.174;2023-02-15T09:04:20;14.40;;;9.13;;
4553;SDS011;2289;48.316;15.174;2023-02-15T09:06:50;11.80;;;6.70;;
4553;SDS011;2289;48.316;15.174;2023-02-15T09:09:20;14.53;;;9.87;;
4553;SDS011;2289;48.316;15.174;2023-02-15T09:11:51;11.87;;;7.80;;
4553;SDS011;2289;48.316;15.174;2023-02-15T09:14:25;16.57;;;9.27;;
4553;SDS011;2289;48.316;15.174;2023-02-15T09:17:00;12.77;;;8.70;;
4553;SDS011;2289;48.316;15.174;2023-02-15T09:19:35;11.93;;;7.80;;
4553;SDS011;2289;48.316;15.174;2023-02-15T09:22:04;17.10;;;8.03;;
4553;SDS011;2289;48.316;15.174;2023-02-15T09:24:35;22.97;;;9.93;;
4553;SDS011;2289;48.316;15.174;2023-02-15T09:27:04;13.37;;;9.37;;
4553;SDS011;2289;48.316;15.174;2023-02-15T09:29:34;15.10;;;9.20;;
4553;SDS011;2289;48.316;15.174;2023-02-15T09:32:03;12.80;;;8.73;;
4553;SDS011;2289;48.316;15.174;2023-02-15T09:34:33;16.13;;;8.37;;
4553;SDS011;2289;48.316;15.174;2023-02-15T09:37:04;16.07;;;9.17;;
4553;SDS011;2289;48.316;15.174;2023-02-15T09:39:33;16.93;;;9.50;;
4553;SDS011;2289;48.316;15.174;2023-02-15T09:42:16;15.40;;;9.60;;
4553;SDS011;2289;48.316;15.174;2023-02-15T09:45:07;14.00;;;8.83;;
4553;SDS011;2289;48.316;15.174;2023-02-15T09:47:52;13.00;;;8.13;;
4553;SDS011;2289;48.316;15.174;2023-02-15T09:50:48;17.13;;;8.23;;
4553;SDS011;2289;48.316;15.174;2023-02-15T09:53:32;18.67;;;9.40;;
4553;SDS011;2289;48.316;15.174;2023-02-15T09:56:06;15.90;;;9.10;;
4553;SDS011;2289;48.316;15.174;2023-02-15T09:58:44;12.50;;;7.43;;
4553;SDS011;2289;48.316;15.174;2023-02-15T10:01:17;13.07;;;7.63;;
4553;SDS011;2289;48.316;15.174;2023-02-15T10:03:53;16.77;;;9.17;;
4553;SDS011;2289;48.316;15.174;2023-02-15T10:06:30;13.53;;;8.90;;
4553;SDS011;2289;48.316;15.174;2023-02-15T10:09:04;14.53;;;8.93;;
4553;SDS011;2289;48.316;15.174;2023-02-15T10:11:47;13.27;;;8.50;;
4553;SDS011;2289;48.316;15.174;2023-02-15T10:14:29;15.33;;;9.13;;
4553;SDS011;2289;48.316;15.174;2023-02-15T10:17:09;14.43;;;9.07;;
4553;SDS011;2289;48.316;15.174;2023-02-15T10:19:50;13.13;;;7.40;;
4553;SDS011;2289;48.316;15.174;2023-02-15T10:22:35;14.80;;;7.97;;
4553;SDS011;2289;48.316;15.174;2023-02-15T10:25:22;10.47;;;7.07;;
4553;SDS011;2289;48.316;15.174;2023-02-15T10:27:58;13.77;;;8.73;;
4553;SDS011;2289;48.316;15.174;2023-02-15T10:30:31;11.43;;;7.47;;
4553;SDS011;2289;48.316;15.174;2023-02-15T10:33:08;12.10;;;7.53;;
4553;SDS011;2289;48.316;15.174;2023-02-15T10:35:46;10.90;;;7.27;;
4553;SDS011;2289;48.316;15.174;2023-02-15T10:38:24;11.50;;;7.00;;
4553;SDS011;2289;48.316;15.174;2023-02-15T10:41:00;16.80;;;10.20;;
4553;SDS011;2289;48.316;15.174;2023-02-15T10:46:39;10.10;;;6.33;;
4553;SDS011;2289;48.316;15.174;2023-02-15T10:49:23;11.23;;;7.27;;
4553;SDS011;2289;48.316;15.174;2023-02-15T10:52:01;10.47;;;6.33;;
4553;SDS011;2289;48.316;15.174;2023-02-15T10:54:39;17.80;;;7.00;;
4553;SDS011;2289;48.316;15.174;2023-02-15T10:57:16;10.17;;;6.53;;
4553;SDS011;2289;48.316;15.174;2023-02-15T10:59:55;7.80;;;5.40;;
4553;SDS011;2289;48.316;15.174;2023-02-15T11:02:31;8.23;;;7.10;;
4553;SDS011;2289;48.316;15.174;2023-02-15T11:05:16;9.67;;;7.90;;
4553;SDS011;2289;48.316;15.174;2023-02-15T11:07:51;19.53;;;13.90;;
4553;SDS011;2289;48.316;15.174;2023-02-15T11:10:26;23.73;;;13.87;;
4553;SDS011;2289;48.316;15.174;2023-02-15T11:12:59;20.93;;;12.80;;
4553;SDS011;2289;48.316;15.174;2023-02-15T11:15:33;33.90;;;19.90;;
4553;SDS011;2289;48.316;15.174;2023-02-15T11:18:05;19.57;;;14.13;;
4553;SDS011;2289;48.316;15.174;2023-02-15T11:20:41;23.50;;;15.67;;
4553;SDS011;2289;48.316;15.174;2023-02-15T11:23:15;15.60;;;11.93;;
4553;SDS011;2289;48.316;15.174;2023-02-15T11:25:45;14.60;;;10.27;;
4553;SDS011;2289;48.316;15.174;2023-02-15T11:28:32;15.83;;;11.47;;
4553;SDS011;2289;48.316;15.174;2023-02-15T11:31:16;16.33;;;10.10;;
4553;SDS011;2289;48.316;15.174;2023-02-15T11:33:46;15.60;;;11.60;;
4553;SDS011;2289;48.316;15.174;2023-02-15T11:36:18;17.60;;;11.00;;
4553;SDS011;2289;48.316;15.174;2023-02-15T11:38:49;14.30;;;9.87;;
4553;SDS011;2289;48.316;15.174;2023-02-15T11:41:23;14.83;;;9.47;;
4553;SDS011;2289;48.316;15.174;2023-02-15T11:43:58;17.27;;;9.70;;
4553;SDS011;2289;48.316;15.174;2023-02-15T11:46:32;18.67;;;16.30;;
4553;SDS011;2289;48.316;15.174;2023-02-15T11:49:01;16.30;;;11.60;;
4553;SDS011;2289;48.316;15.174;2023-02-15T11:51:29;13.87;;;10.10;;
4553;SDS011;2289;48.316;15.174;2023-02-15T11:54:00;18.13;;;10.90;;
4553;SDS011;2289;48.316;15.174;2023-02-15T11:56:30;17.47;;;9.00;;
4553;SDS011;2289;48.316;15.174;2023-02-15T11:59:02;16.93;;;11.03;;
4553;SDS011;2289;48.316;15.174;2023-02-15T12:01:35;20.80;;;11.17;;
4553;SDS011;2289;48.316;15.174;2023-02-15T12:04:06;15.70;;;11.07;;
4553;SDS011;2289;48.316;15.174;2023-02-15T12:06:41;13.53;;;9.13;;
4553;SDS011;2289;48.316;15.174;2023-02-15T12:09:13;14.73;;;10.37;;
4553;SDS011;2289;48.316;15.174;2023-02-15T12:11:49;16.40;;;10.70;;
4553;SDS011;2289;48.316;15.174;2023-02-15T12:14:21;13.80;;;9.83;;
4553;SDS011;2289;48.316;15.174;2023-02-15T12:16:50;15.83;;;9.50;;
4553;SDS011;2289;48.316;15.174;2023-02-15T12:19:30;16.67;;;9.47;;
4553;SDS011;2289;48.316;15.174;2023-02-15T12:22:01;13.27;;;9.20;;
4553;SDS011;2289;48.316;15.174;2023-02-15T12:24:32;14.37;;;9.70;;
4553;SDS011;2289;48.316;15.174;2023-02-15T12:27:03;14.40;;;9.80;;
4553;SDS011;2289;48.316;15.174;2023-02-15T12:29:39;11.77;;;9.13;;
4553;SDS011;2289;48.316;15.174;2023-02-15T12:32:10;14.43;;;8.93;;
4553;SDS011;2289;48.316;15.174;2023-02-15T12:34:39;14.93;;;9.90;;
4553;SDS011;2289;48.316;15.174;2023-02-15T12:37:19;10.97;;;8.90;;
4553;SDS011;2289;48.316;15.174;2023-02-15T12:39:51;17.97;;;9.90;;
4553;SDS011;2289;48.316;15.174;2023-02-15T12:42:21;13.67;;;9.30;;
4553;SDS011;2289;48.316;15.174;2023-02-15T12:44:59;19.20;;;13.60;;
4553;SDS011;2289;48.316;15.174;2023-02-15T12:47:29;16.17;;;10.37;;
4553;SDS011;2289;48.316;15.174;2023-02-15T12:50:12;18.30;;;9.50;;
4553;SDS011;2289;48.316;15.174;2023-02-15T12:52:45;22.20;;;15.10;;
4553;SDS011;2289;48.316;15.174;2023-02-15T12:55:20;20.30;;;13.00;;
4553;SDS011;2289;48.316;15.174;2023-02-15T12:58:04;18.40;;;12.47;;
4553;SDS011;2289;48.316;15.174;2023-02-15T13:00:35;17.30;;;11.37;;
4553;SDS011;2289;48.316;15.174;2023-02-15T13:03:04;18.83;;;10.93;;
4553;SDS011;2289;48.316;15.174;2023-02-15T13:05:34;18.63;;;10.90;;
4553;SDS011;2289;48.316;15.174;2023-02-15T13:08:09;14.07;;;10.00;;
4553;SDS011;2289;48.316;15.174;2023-02-15T13:10:39;14.27;;;10.17;;
4553;SDS011;2289;48.316;15.174;2023-02-15T13:13:09;15.60;;;10.27;;
4553;SDS011;2289;48.316;15.174;2023-02-15T13:15:41;12.20;;;9.53;;
4553;SDS011;2289;48.316;15.174;2023-02-15T13:18:12;16.77;;;10.30;;
4553;SDS011;2289;48.316;15.174;2023-02-15T13:20:45;16.73;;;13.33;;
4553;SDS011;2289;48.316;15.174;2023-02-15T13:23:21;12.53;;;9.43;;
4553;SDS011;2289;48.316;15.174;2023-02-15T13:25:55;14.87;;;12.33;;
4553;SDS011;2289;48.316;15.174;2023-02-15T13:28:26;18.23;;;12.03;;
4553;SDS011;2289;48.316;15.174;2023-02-15T13:31:03;18.33;;;11.40;;
4553;SDS011;2289;48.316;15.174;2023-02-15T13:33:33;16.67;;;12.10;;
4553;SDS011;2289;48.316;15.174;2023-02-15T13:36:05;20.30;;;11.57;;
4553;SDS011;2289;48.316;15.174;2023-02-15T13:38:44;20.97;;;11.80;;
4553;SDS011;2289;48.316;15.174;2023-02-15T13:41:15;20.77;;;12.60;;
4553;SDS011;2289;48.316;15.174;2023-02-15T13:43:50;18.77;;;13.03;;
4553;SDS011;2289;48.316;15.174;2023-02-15T13:49:23;19.80;;;13.10;;
4553;SDS011;2289;48.316;15.174;2023-02-15T13:52:18;15.47;;;12.27;;
4553;SDS011;2289;48.316;15.174;2023-02-15T13:54:51;17.30;;;12.73;;
4553;SDS011;2289;48.316;15.174;2023-02-15T14:00:24;18.27;;;15.43;;
4553;SDS011;2289;48.316;15.174;2023-02-15T14:03:10;21.13;;;14.67;;
4553;SDS011;2289;48.316;15.174;2023-02-15T14:05:54;19.30;;;14.50;;
4553;SDS011;2289;48.316;15.174;2023-02-15T14:08:34;23.93;;;15.00;;
4553;SDS011;2289;48.316;15.174;2023-02-15T14:11:11;23.07;;;16.20;;
4553;SDS011;2289;48.316;15.174;2023-02-15T14:13:50;22.20;;;16.20;;
4553;SDS011;2289;48.316;15.174;2023-02-15T14:16:34;25.00;;;16.73;;
4553;SDS011;2289;48.316;15.174;2023-02-15T14:19:12;22.37;;;17.27;;
4553;SDS011;2289;48.316;15.174;2023-02-15T14:21:47;27.53;;;17.17;;
4553;SDS011;2289;48.316;15.174;2023-02-15T14:24:21;22.97;;;16.73;;
4553;SDS011;2289;48.316;15.174;2023-02-15T14:26:56;25.50;;;17.77;;
4553;SDS011;2289;48.316;15.174;2023-02-15T14:29:36;20.80;;;15.10;;
4553;SDS011;2289;48.316;15.174;2023-02-15T14:32:13;27.97;;;16.80;;
4553;SDS011;2289;48.316;15.174;2023-02-15T14:34:48;24.80;;;16.90;;
4553;SDS011;2289;48.316;15.174;2023-02-15T14:37:23;23.30;;;15.07;;
4553;SDS011;2289;48.316;15.174;2023-02-15T14:39:58;26.70;;;17.20;;
4553;SDS011;2289;48.316;15.174;2023-02-15T14:42:48;21.43;;;16.00;;
4553;SDS011;2289;48.316;15.174;2023-02-15T14:45:21;22.37;;;17.03;;
4553;SDS011;2289;48.316;15.174;2023-02-15T14:47:52;25.83;;;17.97;;
4553;SDS011;2289;48.316;15.174;2023-02-15T14:50:38;23.47;;;16.40;;
4553;SDS011;2289;48.316;15.174;2023-02-15T14:53:22;28.10;;;19.47;;
4553;SDS011;2289;48.316;15.174;2023-02-15T14:58:55;24.67;;;18.30;;
4553;SDS011;2289;48.316;15.174;2023-02-15T15:01:25;25.07;;;16.47;;
4553;SDS011;2289;48.316;15.174;2023-02-15T15:03:55;21.80;;;16.57;;
4553;SDS011;2289;48.316;15.174;2023-02-15T15:06:27;26.20;;;17.43;;
4553;SDS011;2289;48.316;15.174;2023-02-15T15:09:19;25.63;;;17.00;;
4553;SDS011;2289;48.316;15.174;2023-02-15T15:11:49;29.27;;;18.10;;
4553;SDS011;2289;48.316;15.174;2023-02-15T15:14:39;27.23;;;19.93;;
4553;SDS011;2289;48.316;15.174;2023-02-15T15:17:10;29.77;;;19.37;;
4553;SDS011;2289;48.316;15.174;2023-02-15T15:22:42;31.10;;;19.13;;
4553;SDS011;2289;48.316;15.174;2023-02-15T15:25:11;32.70;;;22.40;;
4553;SDS011;2289;48.316;15.174;2023-02-15T15:31:37;32.30;;;22.90;;
4553;SDS011;2289;48.316;15.174;2023-02-15T15:34:17;26.67;;;18.83;;
4553;SDS011;2289;48.316;15.174;2023-02-15T15:36:53;37.03;;;25.07;;
4553;SDS011;2289;48.316;15.174;2023-02-15T15:42:51;22.30;;;15.50;;
4553;SDS011;2289;48.316;15.174;2023-02-15T15:45:32;24.53;;;18.13;;
4553;SDS011;2289;48.316;15.174;2023-02-15T15:51:02;22.93;;;16.13;;
4553;SDS011;2289;48.316;15.174;2023-02-15T15:53:34;30.80;;;16.33;;
4553;SDS011;2289;48.316;15.174;2023-02-15T15:56:10;28.80;;;14.90;;
4553;SDS011;2289;48.316;15.174;2023-02-15T15:58:45;29.20;;;16.53;;
4553;SDS011;2289;48.316;15.174;2023-02-15T16:01:42;24.43;;;13.67;;